createdAt,value
2018-08-04T00:00:35.917Z,87.50
2018-08-04T00:03:07.094Z,87.70
2018-08-04T00:08:08.510Z,88.30
2018-08-04T00:13:10.913Z,89.10
2018-08-04T00:15:42.073Z,89.00
2018-08-04T00:18:13.071Z,90.10
2018-08-04T00:20:43.993Z,88.80
2018-08-04T00:23:15.048Z,88.40
2018-08-04T00:25:46.248Z,87.90
2018-08-04T00:28:17.121Z,87.60
2018-08-04T00:30:48.200Z,87.80
2018-08-04T00:33:19.373Z,88.50
2018-08-04T00:35:50.385Z,88.90
2018-08-04T00:38:21.270Z,88.60
2018-08-04T00:40:52.339Z,88.50
2018-08-04T00:43:23.258Z,88.90
2018-08-04T00:45:54.315Z,89.90
2018-08-04T00:48:25.289Z,88.80
2018-08-04T00:50:56.187Z,88.70
2018-08-04T00:53:27.391Z,88.50
2018-08-04T00:56:00.299Z,88.10
2018-08-04T00:58:31.298Z,88.30
2018-08-04T01:01:02.448Z,88.40
2018-08-04T01:03:33.309Z,88.80
2018-08-04T01:06:04.352Z,89.70
2018-08-04T01:08:35.342Z,90.00
2018-08-04T01:11:06.386Z,90.00
2018-08-04T01:13:37.367Z,89.60
2018-08-04T01:17:37.525Z,89.70
2018-08-04T01:20:08.612Z,89.20
2018-08-04T01:22:39.759Z,89.60
2018-08-04T01:25:10.714Z,89.70
2018-08-04T01:30:12.116Z,90.20
2018-08-04T01:32:43.443Z,89.70
2018-08-04T01:35:14.627Z,89.20
2018-08-04T01:37:45.626Z,88.60
2018-08-04T01:40:16.607Z,88.70
2018-08-04T01:42:47.685Z,88.70
2018-08-04T01:45:19.293Z,89.00
2018-08-04T01:47:50.221Z,89.20
2018-08-04T01:50:21.099Z,90.00
2018-08-04T01:52:52.297Z,89.90
2018-08-04T01:55:23.182Z,89.30
2018-08-04T01:57:54.011Z,89.90
2018-08-04T02:00:24.902Z,89.50
2018-08-04T02:02:55.718Z,89.30
2018-08-04T02:05:26.817Z,89.00
2018-08-04T02:07:57.764Z,88.60
2018-08-04T02:10:28.798Z,89.40
2018-08-04T02:12:59.735Z,89.20
2018-08-04T02:15:30.738Z,89.50
2018-08-04T02:18:01.567Z,90.00
2018-08-04T02:20:32.608Z,90.20
2018-08-04T02:23:03.648Z,89.80
2018-08-04T02:25:34.562Z,89.90
2018-08-04T02:28:05.530Z,89.40
2018-08-04T02:30:36.487Z,89.50
2018-08-04T02:33:07.505Z,89.50
2018-08-04T02:35:38.435Z,89.20
2018-08-04T02:38:09.245Z,89.50
2018-08-04T02:40:40.254Z,89.30
2018-08-04T02:43:11.255Z,89.20
2018-08-04T02:45:42.239Z,89.30
2018-08-04T02:48:13.290Z,89.50
2018-08-04T02:50:44.131Z,90.00
2018-08-04T02:53:15.054Z,90.20
2018-08-04T02:55:46.003Z,90.20
2018-08-04T02:58:17.151Z,90.40
2018-08-04T03:00:48.319Z,90.50
2018-08-04T03:04:48.644Z,90.40
2018-08-04T03:07:19.697Z,90.40
2018-08-04T03:09:50.884Z,90.40
2018-08-04T03:12:22.000Z,90.50
2018-08-04T03:14:53.120Z,90.80
2018-08-04T03:17:24.167Z,90.90
2018-08-04T03:19:55.331Z,91.30
2018-08-04T03:24:56.966Z,91.00
2018-08-04T03:27:28.235Z,90.20
2018-08-04T03:32:29.581Z,90.20
2018-08-04T03:35:00.743Z,90.30
2018-08-04T03:37:31.759Z,90.30
2018-08-04T03:40:02.686Z,90.40
2018-08-04T03:42:34.113Z,90.30
2018-08-04T03:45:05.364Z,90.40
2018-08-04T03:47:36.431Z,90.40
2018-08-04T03:50:08.320Z,90.60
2018-08-04T03:52:39.466Z,90.70
2018-08-04T03:55:10.732Z,91.00
2018-08-04T03:57:41.685Z,91.00
2018-08-04T04:00:12.691Z,90.90
2018-08-04T04:02:43.579Z,90.70
2018-08-04T04:07:44.745Z,90.20
2018-08-04T04:10:17.699Z,90.10
2018-08-04T04:12:48.837Z,90.00
2018-08-04T04:15:19.926Z,90.00
2018-08-04T04:17:50.860Z,90.00
2018-08-04T04:20:22.317Z,90.00
2018-08-04T04:22:53.288Z,89.70
2018-08-04T04:25:24.683Z,89.70
2018-08-04T04:27:55.597Z,90.00
2018-08-04T04:30:27.168Z,90.00
2018-08-04T04:32:58.178Z,90.00
2018-08-04T04:35:29.054Z,90.00
2018-08-04T04:37:59.954Z,89.70
2018-08-04T04:40:30.886Z,89.50
2018-08-04T04:43:02.697Z,89.70
2018-08-04T04:45:34.616Z,90.00
2018-08-04T04:48:05.939Z,90.20
2018-08-04T04:50:36.947Z,90.20
2018-08-04T04:53:09.655Z,90.20
2018-08-04T04:55:40.651Z,90.20
2018-08-04T04:58:11.843Z,90.00
2018-08-04T05:00:42.818Z,89.70
2018-08-04T05:03:14.052Z,89.30
2018-08-04T05:05:45.053Z,88.90
2018-08-04T05:08:16.100Z,89.80
2018-08-04T05:10:47.127Z,87.30
2018-08-04T05:13:18.162Z,87.00
2018-08-04T05:15:49.503Z,86.90
2018-08-04T05:18:20.501Z,84.10
2018-08-04T05:23:22.061Z,84.30
2018-08-04T05:28:23.684Z,81.20
2018-08-04T05:30:54.776Z,80.90
2018-08-04T05:35:56.917Z,79.70
2018-08-04T05:38:28.085Z,80.80
2018-08-04T05:40:59.329Z,79.40
2018-08-04T05:43:30.543Z,78.00
2018-08-04T05:46:02.828Z,76.50
2018-08-04T05:48:33.966Z,76.40
2018-08-04T05:51:05.232Z,76.10
2018-08-04T05:53:36.194Z,75.60
2018-08-04T05:58:37.854Z,74.90
2018-08-04T06:01:08.938Z,73.00
2018-08-04T06:03:41.918Z,72.60
2018-08-04T06:06:13.169Z,72.20
2018-08-04T06:08:44.285Z,72.30
2018-08-04T06:13:45.817Z,73.50
2018-08-04T06:18:47.340Z,72.00
2018-08-04T06:21:18.359Z,71.80
2018-08-04T06:26:20.005Z,70.70
2018-08-04T06:28:50.969Z,70.70
2018-08-04T06:33:52.305Z,70.90
2018-08-04T06:36:23.332Z,72.00
2018-08-04T06:38:54.601Z,71.20
2018-08-04T06:43:56.082Z,67.00
2018-08-04T06:46:26.937Z,66.00
2018-08-04T06:51:28.259Z,65.50
2018-08-04T06:53:59.099Z,64.40
2018-08-04T06:56:30.153Z,64.00
2018-08-04T06:59:01.126Z,63.20
2018-08-04T07:01:32.077Z,65.60
2018-08-04T07:04:03.074Z,65.10
2018-08-04T07:06:33.954Z,64.40
2018-08-04T07:09:06.325Z,63.80
2018-08-04T07:11:37.225Z,62.40
2018-08-04T07:16:40.229Z,63.50
2018-08-04T07:19:11.049Z,62.40
2018-08-04T07:21:42.006Z,63.90
2018-08-04T07:24:12.934Z,63.10
2018-08-04T07:26:44.065Z,62.10
2018-08-04T07:29:15.074Z,61.40
2018-08-04T07:31:46.070Z,62.80
2018-08-04T07:34:17.274Z,60.40
2018-08-04T07:36:48.343Z,60.60
2018-08-04T07:39:19.371Z,60.20
2018-08-04T07:41:50.294Z,59.50
2018-08-04T07:44:21.145Z,60.10
2018-08-04T07:46:52.060Z,57.30
2018-08-04T07:49:22.994Z,58.30
2018-08-04T07:51:53.955Z,60.40
2018-08-04T07:54:24.810Z,56.70
2018-08-04T07:56:55.707Z,55.50
2018-08-04T07:59:26.710Z,56.40
2018-08-04T08:04:27.927Z,56.30
2018-08-04T08:06:59.023Z,54.90
2018-08-04T08:09:30.136Z,55.40
2018-08-04T08:12:01.147Z,55.50
2018-08-04T08:14:32.357Z,54.80
2018-08-04T08:17:03.656Z,55.00
2018-08-04T08:19:34.620Z,54.40
2018-08-04T08:24:36.204Z,53.80
2018-08-04T08:27:07.156Z,54.30
2018-08-04T08:29:38.188Z,53.50
2018-08-04T08:32:09.081Z,54.70
2018-08-04T08:34:40.034Z,56.00
2018-08-04T08:37:11.090Z,53.20
2018-08-04T08:39:41.924Z,50.90
2018-08-04T08:44:43.429Z,52.10
2018-08-04T08:47:14.474Z,51.80
2018-08-04T08:49:45.417Z,51.90
2018-08-04T08:52:16.352Z,51.60
2018-08-04T08:54:47.660Z,50.90
2018-08-04T08:57:19.088Z,51.10
2018-08-04T08:59:50.457Z,53.70
2018-08-04T09:02:21.606Z,51.30
2018-08-04T09:04:52.694Z,47.70
2018-08-04T09:07:23.717Z,48.80
2018-08-04T09:09:54.770Z,46.70
2018-08-04T09:12:25.890Z,48.30
2018-08-04T09:14:56.956Z,47.50
2018-08-04T09:17:27.900Z,47.90
2018-08-04T09:20:00.054Z,48.90
2018-08-04T09:22:50.938Z,47.10
2018-08-04T09:25:24.991Z,46.70
2018-08-04T09:27:56.273Z,46.40
2018-08-04T09:32:57.897Z,45.60
2018-08-04T09:35:29.063Z,46.80
2018-08-04T09:43:02.269Z,46.40
2018-08-04T09:45:34.619Z,45.80
2018-08-04T09:48:06.199Z,45.70
2018-08-04T09:50:37.313Z,46.10
2018-08-04T09:53:08.687Z,47.30
2018-08-04T09:55:39.955Z,46.40
2018-08-04T09:58:11.109Z,44.10
2018-08-04T10:00:47.190Z,43.70
2018-08-04T10:03:18.310Z,46.10
2018-08-04T10:05:49.709Z,43.30
2018-08-04T10:08:32.809Z,44.70
2018-08-04T10:11:04.036Z,45.00
2018-08-04T10:13:35.100Z,44.50
2018-08-04T10:16:06.424Z,44.90
2018-08-04T10:21:08.153Z,44.40
2018-08-04T10:23:39.924Z,44.30
2018-08-04T10:26:14.353Z,43.30
2018-08-04T10:28:45.443Z,45.60
2018-08-04T10:31:16.434Z,42.20
2018-08-04T10:33:47.770Z,40.50
2018-08-04T10:36:18.816Z,41.70
2018-08-04T10:38:50.020Z,43.00
2018-08-04T10:43:51.580Z,39.90
2018-08-04T10:46:23.360Z,43.90
2018-08-04T10:48:54.617Z,40.90
2018-08-04T10:51:25.608Z,41.50
2018-08-04T10:58:58.174Z,41.20
2018-08-04T11:01:29.988Z,40.10
2018-08-04T11:04:01.158Z,39.30
2018-08-04T11:06:32.811Z,42.40
2018-08-04T11:09:07.059Z,40.20
2018-08-04T11:14:09.482Z,39.10
2018-08-04T11:16:40.502Z,40.20
2018-08-04T11:19:11.626Z,41.00
2018-08-04T11:21:42.660Z,38.90
2018-08-04T11:24:14.096Z,41.10
2018-08-04T11:26:45.025Z,41.00
2018-08-04T11:29:16.300Z,39.00
2018-08-04T11:31:47.751Z,39.60
2018-08-04T11:34:19.145Z,40.40
2018-08-04T11:36:50.619Z,41.20
2018-08-04T11:39:22.964Z,41.10
2018-08-04T11:41:54.242Z,42.00
2018-08-04T11:44:25.793Z,43.80
2018-08-04T11:46:57.066Z,43.80
2018-08-04T11:49:28.607Z,45.10
2018-08-04T11:51:59.789Z,45.70
2018-08-04T11:54:31.429Z,45.60
2018-08-04T11:57:02.931Z,42.30
2018-08-04T11:59:34.494Z,42.10
2018-08-04T12:02:05.850Z,43.10
2018-08-04T12:04:37.083Z,42.90
2018-08-04T12:07:08.292Z,44.50
2018-08-04T12:09:39.521Z,42.30
2018-08-04T12:12:17.287Z,43.50
2018-08-04T12:14:48.676Z,43.60
2018-08-04T12:17:19.967Z,43.50
2018-08-04T12:19:51.068Z,44.20
2018-08-04T12:24:53.372Z,42.20
2018-08-04T12:27:24.463Z,43.20
2018-08-04T12:29:55.551Z,45.90
2018-08-04T12:32:26.781Z,40.40
2018-08-04T12:37:28.804Z,43.60
2018-08-04T12:40:00.209Z,41.80
2018-08-04T12:45:02.242Z,41.10
2018-08-04T12:47:33.744Z,42.70
2018-08-04T12:50:04.731Z,42.40
2018-08-04T12:57:36.676Z,42.80
2018-08-04T13:00:09.231Z,45.10
2018-08-04T13:02:40.340Z,44.50
2018-08-04T13:05:11.257Z,44.00
2018-08-04T13:10:12.537Z,43.80
2018-08-04T13:12:43.659Z,43.10
2018-08-04T13:17:45.098Z,44.50
2018-08-04T13:20:16.048Z,44.30
2018-08-04T13:22:47.008Z,42.80
2018-08-04T13:25:18.204Z,43.20
2018-08-04T13:27:49.149Z,43.80
2018-08-04T13:30:20.405Z,43.20
2018-08-04T13:32:51.691Z,43.00
2018-08-04T13:35:22.644Z,44.00
2018-08-04T13:40:24.494Z,46.00
2018-08-04T13:42:55.689Z,45.90
2018-08-04T13:45:26.987Z,44.20
2018-08-04T13:47:58.247Z,44.10
2018-08-04T13:52:59.648Z,43.90
2018-08-04T13:55:30.964Z,44.10
2018-08-04T14:00:32.593Z,44.50
2018-08-04T14:03:03.713Z,44.60
2018-08-04T14:05:34.622Z,44.70
2018-08-04T14:08:05.705Z,43.90
2018-08-04T14:10:36.966Z,43.10
2018-08-04T14:13:08.205Z,42.70
2018-08-04T14:18:10.160Z,44.20
2018-08-04T14:20:41.268Z,44.70
2018-08-04T14:23:12.269Z,44.60
2018-08-04T14:25:43.085Z,45.20
2018-08-04T14:28:14.259Z,44.80
2018-08-04T14:30:45.480Z,43.80
2018-08-04T14:33:16.649Z,45.20
2018-08-04T14:35:48.075Z,43.90
2018-08-04T14:38:19.683Z,43.30
2018-08-04T14:43:21.532Z,42.90
2018-08-04T14:45:52.837Z,43.40
2018-08-04T14:48:23.893Z,43.80
2018-08-04T14:50:55.427Z,43.50
2018-08-04T14:53:26.637Z,43.10
2018-08-04T14:55:57.770Z,43.80
2018-08-04T15:00:59.464Z,45.30
2018-08-04T15:03:30.733Z,45.20
2018-08-04T15:06:02.031Z,47.00
2018-08-04T15:08:33.274Z,46.90
2018-08-04T15:11:04.531Z,46.30
2018-08-04T15:13:35.574Z,46.70
2018-08-04T15:16:06.917Z,45.80
2018-08-04T15:23:39.112Z,46.50
2018-08-04T15:26:10.070Z,46.80
2018-08-04T15:28:41.409Z,47.60
2018-08-04T15:31:12.580Z,47.30
2018-08-04T15:33:43.815Z,47.30
2018-08-04T15:38:45.290Z,47.80
2018-08-04T15:41:16.524Z,48.20
2018-08-04T15:43:47.594Z,49.30
2018-08-04T15:46:18.544Z,50.40
2018-08-04T15:48:49.548Z,49.10
2018-08-04T15:51:20.891Z,48.70
2018-08-04T15:56:22.605Z,48.70
2018-08-04T15:58:53.507Z,48.60
2018-08-04T16:01:24.628Z,49.40
2018-08-04T16:03:56.043Z,49.20
2018-08-04T16:06:27.111Z,49.50
2018-08-04T16:08:58.156Z,49.20
2018-08-04T16:11:29.213Z,49.20
2018-08-04T16:21:31.988Z,50.40
2018-08-04T16:24:03.122Z,51.10
2018-08-04T16:26:34.293Z,51.10
2018-08-04T16:29:05.474Z,50.80
2018-08-04T16:31:36.758Z,50.80
2018-08-04T16:34:08.022Z,50.90
2018-08-04T16:36:39.181Z,50.90
2018-08-04T16:44:13.099Z,52.30
2018-08-04T16:46:44.291Z,52.00
2018-08-04T16:49:15.584Z,52.40
2018-08-04T16:51:47.277Z,52.80
2018-08-04T16:54:18.731Z,53.00
2018-08-04T16:56:49.938Z,52.90
2018-08-04T16:59:20.896Z,53.00
2018-08-04T17:01:52.027Z,53.30
2018-08-04T17:04:23.224Z,53.80
2018-08-04T17:09:24.633Z,54.40
2018-08-04T17:14:26.154Z,55.60
2018-08-04T17:16:57.322Z,55.90
2018-08-04T17:19:28.770Z,56.20
2018-08-04T17:21:59.916Z,56.60
2018-08-04T17:24:31.030Z,56.70
2018-08-04T17:29:33.212Z,57.70
2018-08-04T17:32:04.270Z,58.00
2018-08-04T17:34:35.412Z,58.40
2018-08-04T17:39:37.197Z,59.20
2018-08-04T17:42:08.206Z,59.40
2018-08-04T17:47:09.759Z,60.40
2018-08-04T17:52:16.509Z,61.70
2018-08-04T17:55:00.116Z,62.60
2018-08-04T18:00:56.470Z,63.30
2018-08-04T18:03:27.809Z,64.40
2018-08-04T18:05:59.287Z,65.40
2018-08-04T18:08:30.646Z,65.80
2018-08-04T18:11:02.098Z,66.50
2018-08-04T18:13:33.229Z,66.50
2018-08-04T18:16:04.299Z,66.60
2018-08-04T18:18:35.490Z,66.70
2018-08-04T18:23:36.824Z,68.10
2018-08-04T18:26:07.956Z,68.00
2018-08-04T18:28:39.029Z,68.50
2018-08-04T18:31:10.140Z,68.80
2018-08-04T18:33:41.222Z,70.00
2018-08-04T18:36:12.154Z,69.80
2018-08-04T18:38:43.266Z,70.40
2018-08-04T18:41:14.429Z,70.90
2018-08-04T18:43:45.751Z,71.20
2018-08-04T18:48:47.571Z,71.40
2018-08-04T18:51:18.873Z,71.80
2018-08-04T18:53:50.365Z,72.30
2018-08-04T18:59:06.707Z,73.00
2018-08-04T19:01:37.804Z,73.00
2018-08-04T19:04:09.186Z,72.70
2018-08-04T19:06:40.378Z,72.60
2018-08-04T19:09:12.405Z,73.10
2018-08-04T19:11:43.895Z,74.10
2018-08-04T19:19:15.820Z,74.60
2018-08-04T19:21:47.041Z,75.50
2018-08-04T19:24:18.409Z,75.60
2018-08-04T19:26:49.706Z,75.60
2018-08-04T19:29:20.957Z,75.50
2018-08-04T19:31:52.284Z,75.60
2018-08-04T19:34:23.369Z,75.90
2018-08-04T19:36:54.738Z,76.50
2018-08-04T19:41:56.872Z,78.10
2018-08-04T19:44:28.046Z,76.90
2018-08-04T19:46:59.189Z,76.90
2018-08-04T19:49:30.259Z,77.80
2018-08-04T19:52:01.441Z,78.40
2018-08-04T19:54:32.917Z,79.70
2018-08-04T19:57:04.129Z,78.70
2018-08-04T19:59:35.308Z,78.60
2018-08-04T20:02:06.857Z,78.40
2018-08-04T20:04:38.153Z,78.50
2018-08-04T20:07:09.568Z,78.20
2018-08-04T20:09:40.783Z,78.70
2018-08-04T20:12:11.897Z,79.70
2018-08-04T20:17:13.440Z,79.80
2018-08-04T20:19:44.737Z,79.90
2018-08-04T20:22:17.474Z,80.20
2018-08-04T20:24:48.896Z,80.00
2018-08-04T20:27:19.976Z,79.90
2018-08-04T20:29:51.066Z,80.00
2018-08-04T20:32:22.527Z,81.10
2018-08-04T20:34:53.749Z,81.00
2018-08-04T20:37:24.647Z,81.50
2018-08-04T20:39:55.981Z,80.90
2018-08-04T20:42:27.088Z,80.40
2018-08-04T20:44:58.107Z,80.00
2018-08-04T20:47:29.201Z,80.30
2018-08-04T20:50:00.233Z,80.70
2018-08-04T20:52:31.207Z,81.10
2018-08-04T20:55:02.356Z,81.20
2018-08-04T20:57:33.356Z,81.50
2018-08-04T21:00:04.435Z,81.40
2018-08-04T21:02:35.415Z,80.80
2018-08-04T21:05:07.328Z,80.40
2018-08-04T21:07:38.571Z,81.00
2018-08-04T21:12:40.436Z,81.70
2018-08-04T21:17:42.215Z,81.40
2018-08-04T21:20:13.500Z,81.80
2018-08-04T21:22:44.571Z,81.30
2018-08-04T21:25:15.678Z,81.30
2018-08-04T21:27:46.800Z,82.70
2018-08-04T21:30:17.802Z,82.00
2018-08-04T21:32:48.914Z,81.40
2018-08-04T21:35:19.795Z,81.90
2018-08-04T21:37:50.968Z,80.80
2018-08-04T21:40:22.001Z,80.70
2018-08-04T21:45:23.548Z,82.50
2018-08-04T21:47:54.468Z,83.30
2018-08-04T21:50:25.848Z,82.50
2018-08-04T21:52:56.877Z,81.90
2018-08-04T21:55:28.031Z,82.30
2018-08-04T21:57:59.077Z,81.60
2018-08-04T22:03:02.131Z,83.00
2018-08-04T22:05:33.514Z,81.80
2018-08-04T22:08:21.056Z,84.10
2018-08-04T22:10:52.213Z,81.50
2018-08-04T22:13:23.374Z,83.10
2018-08-04T22:15:54.420Z,81.80
2018-08-04T22:18:25.641Z,81.80
2018-08-04T22:20:56.703Z,82.40
2018-08-04T22:23:27.680Z,82.40
2018-08-04T22:25:58.640Z,82.40
2018-08-04T22:28:29.791Z,82.80
2018-08-04T22:31:00.741Z,83.00
2018-08-04T22:36:02.171Z,83.30
2018-08-04T22:38:33.100Z,82.90
2018-08-04T22:41:04.268Z,83.70
2018-08-04T22:43:35.309Z,83.70
2018-08-04T22:46:15.733Z,83.50
2018-08-04T22:48:48.108Z,83.90
2018-08-04T22:51:28.568Z,83.90
2018-08-04T22:53:59.649Z,84.50
2018-08-04T22:56:30.621Z,83.50
2018-08-04T22:59:01.485Z,83.50
2018-08-04T23:01:32.521Z,83.70
2018-08-04T23:04:03.540Z,84.60
2018-08-04T23:06:34.602Z,83.90
2018-08-04T23:09:07.382Z,84.10
2018-08-04T23:11:38.597Z,84.00
2018-08-04T23:14:09.566Z,83.60
2018-08-04T23:16:40.394Z,84.20
2018-08-04T23:19:11.233Z,84.50
2018-08-04T23:21:41.952Z,84.00
2018-08-04T23:24:12.828Z,83.90
2018-08-04T23:26:43.953Z,84.20
2018-08-04T23:29:14.882Z,84.50
2018-08-04T23:31:46.095Z,84.20
2018-08-04T23:34:16.820Z,83.80
2018-08-04T23:36:47.730Z,84.10
2018-08-04T23:39:18.820Z,84.70
2018-08-04T23:41:49.697Z,84.90
2018-08-04T23:44:20.556Z,85.00
2018-08-04T23:46:51.366Z,85.70
2018-08-04T23:49:22.114Z,84.80
2018-08-04T23:51:53.232Z,84.30
2018-08-04T23:54:24.104Z,84.00
2018-08-04T23:56:55.041Z,85.10
2018-08-04T23:59:25.780Z,86.10
